DAUL/LOO METAR and TAF weather

Enter ICAO airport designator
Station Type Date Time Source
DAUL METAR 2018/09/19 11:00 UTC NOAA

DAUL 191100Z 24014KT 8000 SCT026CB BKN033 21/18 Q1024


Station Type Date Time Source
DAUL Decoded METAR 2018/09/19 11:00 UTC NOAA

Laghouat, Algeria (DAUL) 33-46N 002-56E 765M
Sep 19, 2018 - 07:00 AM EDT / 2018.09.19 1100 UTC
Wind: from the WSW (240 degrees) at 16 MPH (14 KT):0
Visibility: 4 mile(s):0
Sky conditions: mostly cloudy
Weather: Cumulonimbus clouds observed
Temperature: 69 F (21 C)
Dew Point: 64 F (18 C)
Relative Humidity: 82%
Pressure (altimeter): 30.24 in. Hg (1024 hPa)
ob: DAUL 191100Z 24014KT 8000 SCT026CB BKN033 21/18 Q1024
cycle: 11

Station Type Date Time Source
DAUL TAF 2017/11/09 18:03 UTC NOAA

TAF DAUL 091700Z 0918/1009 02012KT 9999 SCT030 SCT100 PROB40
TEMPO 0918/0924 35020G30KT 4000 -TSRA FEW030CB


Example: see airport list